sensor_id;sensor_type;location;lat;lon;timestamp;P1;durP1;ratioP1;P2;durP2;ratioP2
14167;SDS011;7163;50.626;12.922;2024-03-02T00:01:43;85.53;;;39.40;;
14167;SDS011;7163;50.626;12.922;2024-03-02T00:06:46;84.27;;;38.03;;
14167;SDS011;7163;50.626;12.922;2024-03-02T00:11:47;80.73;;;37.23;;
14167;SDS011;7163;50.626;12.922;2024-03-02T00:16:48;93.37;;;40.87;;
14167;SDS011;7163;50.626;12.922;2024-03-02T00:21:49;91.57;;;36.07;;
14167;SDS011;7163;50.626;12.922;2024-03-02T00:26:53;86.20;;;36.83;;
14167;SDS011;7163;50.626;12.922;2024-03-02T00:31:54;96.83;;;46.20;;
14167;SDS011;7163;50.626;12.922;2024-03-02T00:36:58;98.30;;;41.57;;
14167;SDS011;7163;50.626;12.922;2024-03-02T00:42:00;98.10;;;41.93;;
14167;SDS011;7163;50.626;12.922;2024-03-02T00:47:01;77.13;;;36.10;;
14167;SDS011;7163;50.626;12.922;2024-03-02T00:52:03;85.87;;;37.50;;
14167;SDS011;7163;50.626;12.922;2024-03-02T00:57:14;72.57;;;33.77;;
14167;SDS011;7163;50.626;12.922;2024-03-02T01:12:35;89.40;;;38.53;;
14167;SDS011;7163;50.626;12.922;2024-03-02T01:17:36;66.77;;;32.00;;
14167;SDS011;7163;50.626;12.922;2024-03-02T01:22:36;76.73;;;34.17;;
14167;SDS011;7163;50.626;12.922;2024-03-02T01:27:38;71.53;;;34.10;;
14167;SDS011;7163;50.626;12.922;2024-03-02T01:32:38;84.20;;;38.43;;
14167;SDS011;7163;50.626;12.922;2024-03-02T01:37:38;89.83;;;38.23;;
14167;SDS011;7163;50.626;12.922;2024-03-02T01:42:39;109.33;;;39.63;;
14167;SDS011;7163;50.626;12.922;2024-03-02T01:47:41;84.83;;;38.60;;
14167;SDS011;7163;50.626;12.922;2024-03-02T01:52:42;103.60;;;39.20;;
14167;SDS011;7163;50.626;12.922;2024-03-02T01:57:44;94.50;;;40.00;;
14167;SDS011;7163;50.626;12.922;2024-03-02T02:02:45;85.10;;;35.93;;
14167;SDS011;7163;50.626;12.922;2024-03-02T02:07:47;69.13;;;32.67;;
14167;SDS011;7163;50.626;12.922;2024-03-02T02:17:58;65.67;;;30.33;;
14167;SDS011;7163;50.626;12.922;2024-03-02T02:49:20;72.77;;;32.23;;
14167;SDS011;7163;50.626;12.922;2024-03-02T02:54:22;76.57;;;32.77;;
14167;SDS011;7163;50.626;12.922;2024-03-02T02:59:25;54.73;;;29.23;;
14167;SDS011;7163;50.626;12.922;2024-03-02T03:04:25;61.40;;;28.63;;
14167;SDS011;7163;50.626;12.922;2024-03-02T03:09:26;52.53;;;27.40;;
14167;SDS011;7163;50.626;12.922;2024-03-02T03:14:29;51.97;;;26.87;;
14167;SDS011;7163;50.626;12.922;2024-03-02T03:19:32;58.93;;;28.97;;
14167;SDS011;7163;50.626;12.922;2024-03-02T03:24:32;57.60;;;27.80;;
14167;SDS011;7163;50.626;12.922;2024-03-02T03:29:33;51.03;;;25.97;;
14167;SDS011;7163;50.626;12.922;2024-03-02T03:34:33;57.17;;;29.90;;
14167;SDS011;7163;50.626;12.922;2024-03-02T03:39:34;54.90;;;26.60;;
14167;SDS011;7163;50.626;12.922;2024-03-02T04:32:32;51.87;;;25.60;;
14167;SDS011;7163;50.626;12.922;2024-03-02T05:10:48;57.37;;;28.43;;
14167;SDS011;7163;50.626;12.922;2024-03-02T05:15:50;50.43;;;25.50;;
14167;SDS011;7163;50.626;12.922;2024-03-02T05:31:25;54.50;;;27.23;;
14167;SDS011;7163;50.626;12.922;2024-03-02T05:36:28;62.50;;;28.20;;
14167;SDS011;7163;50.626;12.922;2024-03-02T05:41:28;62.00;;;26.67;;
14167;SDS011;7163;50.626;12.922;2024-03-02T05:46:28;66.73;;;28.83;;
14167;SDS011;7163;50.626;12.922;2024-03-02T05:51:29;64.63;;;29.77;;
14167;SDS011;7163;50.626;12.922;2024-03-02T05:56:29;75.30;;;31.07;;
14167;SDS011;7163;50.626;12.922;2024-03-02T06:01:33;78.13;;;31.37;;
14167;SDS011;7163;50.626;12.922;2024-03-02T06:22:36;90.30;;;36.60;;
14167;SDS011;7163;50.626;12.922;2024-03-02T06:34:38;91.80;;;35.97;;
14167;SDS011;7163;50.626;12.922;2024-03-02T06:40:18;90.80;;;35.27;;
14167;SDS011;7163;50.626;12.922;2024-03-02T06:45:42;90.60;;;33.30;;
14167;SDS011;7163;50.626;12.922;2024-03-02T06:57:34;78.13;;;32.27;;
14167;SDS011;7163;50.626;12.922;2024-03-02T07:21:01;81.97;;;31.53;;
14167;SDS011;7163;50.626;12.922;2024-03-02T07:26:04;85.10;;;33.60;;
14167;SDS011;7163;50.626;12.922;2024-03-02T07:31:22;138.27;;;59.90;;
14167;SDS011;7163;50.626;12.922;2024-03-02T07:42:46;77.70;;;32.97;;
14167;SDS011;7163;50.626;12.922;2024-03-02T08:17:46;64.27;;;28.47;;
14167;SDS011;7163;50.626;12.922;2024-03-02T08:22:49;55.30;;;28.70;;
14167;SDS011;7163;50.626;12.922;2024-03-02T08:27:51;46.60;;;25.33;;
14167;SDS011;7163;50.626;12.922;2024-03-02T08:32:51;57.33;;;33.37;;
14167;SDS011;7163;50.626;12.922;2024-03-02T08:37:51;46.07;;;24.53;;
14167;SDS011;7163;50.626;12.922;2024-03-02T08:42:52;49.67;;;28.77;;
14167;SDS011;7163;50.626;12.922;2024-03-02T08:47:52;50.37;;;28.93;;
14167;SDS011;7163;50.626;12.922;2024-03-02T08:52:53;50.47;;;27.80;;
14167;SDS011;7163;50.626;12.922;2024-03-02T08:57:53;46.73;;;25.93;;
14167;SDS011;7163;50.626;12.922;2024-03-02T09:02:56;49.67;;;28.33;;
14167;SDS011;7163;50.626;12.922;2024-03-02T09:07:57;40.63;;;22.67;;
14167;SDS011;7163;50.626;12.922;2024-03-02T09:12:57;40.03;;;24.40;;
14167;SDS011;7163;50.626;12.922;2024-03-02T09:18:04;39.90;;;22.50;;
14167;SDS011;7163;50.626;12.922;2024-03-02T09:23:04;34.60;;;19.50;;
14167;SDS011;7163;50.626;12.922;2024-03-02T09:28:05;193.13;;;76.20;;
14167;SDS011;7163;50.626;12.922;2024-03-02T09:33:05;39.07;;;22.03;;
14167;SDS011;7163;50.626;12.922;2024-03-02T09:38:06;47.63;;;27.00;;
14167;SDS011;7163;50.626;12.922;2024-03-02T09:58:39;30.10;;;16.87;;
14167;SDS011;7163;50.626;12.922;2024-03-02T10:03:44;25.13;;;15.63;;
14167;SDS011;7163;50.626;12.922;2024-03-02T10:08:45;31.50;;;20.77;;
14167;SDS011;7163;50.626;12.922;2024-03-02T10:13:46;34.93;;;23.60;;
14167;SDS011;7163;50.626;12.922;2024-03-02T10:18:47;22.33;;;14.27;;
14167;SDS011;7163;50.626;12.922;2024-03-02T10:23:47;23.53;;;15.03;;
14167;SDS011;7163;50.626;12.922;2024-03-02T10:28:48;23.83;;;14.07;;
14167;SDS011;7163;50.626;12.922;2024-03-02T10:34:02;24.20;;;14.30;;
14167;SDS011;7163;50.626;12.922;2024-03-02T10:39:04;25.83;;;15.33;;
14167;SDS011;7163;50.626;12.922;2024-03-02T10:49:16;26.40;;;16.13;;
14167;SDS011;7163;50.626;12.922;2024-03-02T10:54:37;36.50;;;22.08;;
14167;SDS011;7163;50.626;12.922;2024-03-02T10:59:44;48.08;;;25.10;;
14167;SDS011;7163;50.626;12.922;2024-03-02T11:04:50;55.60;;;30.77;;
14167;SDS011;7163;50.626;12.922;2024-03-02T11:10:41;206.23;;;89.28;;
14167;SDS011;7163;50.626;12.922;2024-03-02T11:15:28;17.70;;;12.13;;
14167;SDS011;7163;50.626;12.922;2024-03-02T11:20:36;53.35;;;42.08;;
14167;SDS011;7163;50.626;12.922;2024-03-02T11:25:58;18.98;;;12.18;;
14167;SDS011;7163;50.626;12.922;2024-03-02T11:31:04;21.52;;;14.23;;
14167;SDS011;7163;50.626;12.922;2024-03-02T11:36:08;28.65;;;18.35;;
14167;SDS011;7163;50.626;12.922;2024-03-02T11:41:09;22.25;;;12.63;;
14167;SDS011;7163;50.626;12.922;2024-03-02T11:46:12;19.50;;;12.13;;
14167;SDS011;7163;50.626;12.922;2024-03-02T12:01:34;11.63;;;6.85;;
14167;SDS011;7163;50.626;12.922;2024-03-02T12:07:01;17.75;;;12.27;;
14167;SDS011;7163;50.626;12.922;2024-03-02T12:12:11;11.18;;;7.30;;
14167;SDS011;7163;50.626;12.922;2024-03-02T12:17:45;12.85;;;7.13;;
14167;SDS011;7163;50.626;12.922;2024-03-02T12:22:59;21.63;;;14.45;;
14167;SDS011;7163;50.626;12.922;2024-03-02T12:28:41;12.18;;;6.85;;
14167;SDS011;7163;50.626;12.922;2024-03-02T12:33:46;14.00;;;7.28;;
14167;SDS011;7163;50.626;12.922;2024-03-02T13:15:00;10.82;;;7.75;;
14167;SDS011;7163;50.626;12.922;2024-03-02T13:20:00;10.40;;;7.22;;
14167;SDS011;7163;50.626;12.922;2024-03-02T13:25:07;12.00;;;7.57;;
14167;SDS011;7163;50.626;12.922;2024-03-02T14:46:23;19.90;;;11.75;;
14167;SDS011;7163;50.626;12.922;2024-03-02T14:51:28;22.27;;;12.27;;
14167;SDS011;7163;50.626;12.922;2024-03-02T14:56:55;24.08;;;12.20;;
14167;SDS011;7163;50.626;12.922;2024-03-02T15:48:28;27.40;;;14.67;;
14167;SDS011;7163;50.626;12.922;2024-03-02T15:58:42;27.50;;;15.00;;
14167;SDS011;7163;50.626;12.922;2024-03-02T16:08:53;25.10;;;13.87;;
14167;SDS011;7163;50.626;12.922;2024-03-02T16:13:56;25.97;;;13.23;;
14167;SDS011;7163;50.626;12.922;2024-03-02T16:19:00;25.60;;;14.20;;
14167;SDS011;7163;50.626;12.922;2024-03-02T16:24:00;29.23;;;13.37;;
14167;SDS011;7163;50.626;12.922;2024-03-02T16:29:02;25.87;;;13.93;;
14167;SDS011;7163;50.626;12.922;2024-03-02T16:34:05;28.33;;;15.30;;
14167;SDS011;7163;50.626;12.922;2024-03-02T17:00:05;60.10;;;31.63;;
14167;SDS011;7163;50.626;12.922;2024-03-02T17:05:08;42.07;;;22.27;;
14167;SDS011;7163;50.626;12.922;2024-03-02T17:10:09;48.17;;;23.17;;
14167;SDS011;7163;50.626;12.922;2024-03-02T17:15:19;50.27;;;26.43;;
14167;SDS011;7163;50.626;12.922;2024-03-02T17:20:25;37.73;;;21.53;;
14167;SDS011;7163;50.626;12.922;2024-03-02T17:25:26;45.03;;;23.67;;
14167;SDS011;7163;50.626;12.922;2024-03-02T17:30:27;52.43;;;28.70;;
14167;SDS011;7163;50.626;12.922;2024-03-02T17:35:27;59.87;;;33.77;;
14167;SDS011;7163;50.626;12.922;2024-03-02T17:40:31;53.97;;;29.27;;
14167;SDS011;7163;50.626;12.922;2024-03-02T17:45:32;50.13;;;28.33;;
14167;SDS011;7163;50.626;12.922;2024-03-02T17:50:33;49.20;;;28.27;;
14167;SDS011;7163;50.626;12.922;2024-03-02T17:55:33;48.30;;;27.23;;
14167;SDS011;7163;50.626;12.922;2024-03-02T18:00:34;45.73;;;25.57;;
14167;SDS011;7163;50.626;12.922;2024-03-02T18:05:34;40.77;;;23.57;;
14167;SDS011;7163;50.626;12.922;2024-03-02T18:10:36;36.53;;;20.13;;
14167;SDS011;7163;50.626;12.922;2024-03-02T18:15:37;41.17;;;23.53;;
14167;SDS011;7163;50.626;12.922;2024-03-02T18:20:39;42.53;;;23.73;;
14167;SDS011;7163;50.626;12.922;2024-03-02T18:25:40;57.80;;;29.70;;
14167;SDS011;7163;50.626;12.922;2024-03-02T19:01:46;71.83;;;37.67;;
14167;SDS011;7163;50.626;12.922;2024-03-02T19:06:50;50.43;;;26.53;;
14167;SDS011;7163;50.626;12.922;2024-03-02T19:11:51;51.83;;;25.23;;
14167;SDS011;7163;50.626;12.922;2024-03-02T19:16:52;52.03;;;27.30;;
14167;SDS011;7163;50.626;12.922;2024-03-02T19:21:55;63.37;;;38.43;;
14167;SDS011;7163;50.626;12.922;2024-03-02T19:26:56;99.43;;;50.83;;
14167;SDS011;7163;50.626;12.922;2024-03-02T19:31:57;74.03;;;40.20;;
14167;SDS011;7163;50.626;12.922;2024-03-02T19:36:57;59.67;;;32.93;;
14167;SDS011;7163;50.626;12.922;2024-03-02T19:42:00;79.30;;;42.87;;
14167;SDS011;7163;50.626;12.922;2024-03-02T19:47:01;74.60;;;35.80;;
14167;SDS011;7163;50.626;12.922;2024-03-02T19:52:02;172.80;;;83.27;;
14167;SDS011;7163;50.626;12.922;2024-03-02T19:57:03;92.40;;;45.30;;
14167;SDS011;7163;50.626;12.922;2024-03-02T20:02:04;96.47;;;47.00;;
14167;SDS011;7163;50.626;12.922;2024-03-02T20:07:10;114.53;;;55.43;;
14167;SDS011;7163;50.626;12.922;2024-03-02T20:12:10;132.93;;;65.97;;
14167;SDS011;7163;50.626;12.922;2024-03-02T20:17:11;104.03;;;50.83;;
14167;SDS011;7163;50.626;12.922;2024-03-02T20:22:11;88.70;;;43.07;;
14167;SDS011;7163;50.626;12.922;2024-03-02T20:53:09;101.67;;;47.90;;
14167;SDS011;7163;50.626;12.922;2024-03-02T20:58:10;90.80;;;43.03;;
14167;SDS011;7163;50.626;12.922;2024-03-02T21:03:10;90.23;;;41.73;;
14167;SDS011;7163;50.626;12.922;2024-03-02T21:08:11;106.77;;;46.33;;
14167;SDS011;7163;50.626;12.922;2024-03-02T21:13:12;99.40;;;42.07;;
14167;SDS011;7163;50.626;12.922;2024-03-02T21:18:12;96.27;;;40.53;;
14167;SDS011;7163;50.626;12.922;2024-03-02T21:23:13;95.60;;;41.13;;
14167;SDS011;7163;50.626;12.922;2024-03-02T21:28:15;88.80;;;39.30;;
14167;SDS011;7163;50.626;12.922;2024-03-02T21:33:15;83.13;;;37.33;;
14167;SDS011;7163;50.626;12.922;2024-03-02T21:38:15;84.03;;;36.10;;
14167;SDS011;7163;50.626;12.922;2024-03-02T21:43:16;86.63;;;36.47;;
14167;SDS011;7163;50.626;12.922;2024-03-02T21:48:17;79.60;;;36.60;;
14167;SDS011;7163;50.626;12.922;2024-03-02T21:53:18;87.80;;;38.57;;
14167;SDS011;7163;50.626;12.922;2024-03-02T21:58:21;85.47;;;36.83;;
14167;SDS011;7163;50.626;12.922;2024-03-02T22:03:24;101.67;;;39.73;;
14167;SDS011;7163;50.626;12.922;2024-03-02T22:08:31;89.90;;;40.87;;
14167;SDS011;7163;50.626;12.922;2024-03-02T22:13:35;98.17;;;40.43;;
14167;SDS011;7163;50.626;12.922;2024-03-02T22:18:36;86.63;;;37.87;;
14167;SDS011;7163;50.626;12.922;2024-03-02T22:23:37;85.80;;;36.87;;
14167;SDS011;7163;50.626;12.922;2024-03-02T22:49:18;114.00;;;45.53;;
14167;SDS011;7163;50.626;12.922;2024-03-02T22:54:18;102.23;;;41.40;;
14167;SDS011;7163;50.626;12.922;2024-03-02T22:59:19;102.77;;;45.20;;
14167;SDS011;7163;50.626;12.922;2024-03-02T23:04:21;111.33;;;43.77;;
14167;SDS011;7163;50.626;12.922;2024-03-02T23:09:21;108.00;;;43.87;;
14167;SDS011;7163;50.626;12.922;2024-03-02T23:14:22;105.00;;;44.77;;
14167;SDS011;7163;50.626;12.922;2024-03-02T23:19:23;111.87;;;45.47;;
14167;SDS011;7163;50.626;12.922;2024-03-02T23:24:24;119.53;;;44.53;;
14167;SDS011;7163;50.626;12.922;2024-03-02T23:29:24;111.37;;;43.80;;
14167;SDS011;7163;50.626;12.922;2024-03-02T23:34:27;118.97;;;47.80;;
14167;SDS011;7163;50.626;12.922;2024-03-02T23:39:29;129.83;;;49.20;;
14167;SDS011;7163;50.626;12.922;2024-03-02T23:44:42;118.20;;;46.03;;
14167;SDS011;7163;50.626;12.922;2024-03-02T23:49:43;130.90;;;49.53;;
14167;SDS011;7163;50.626;12.922;2024-03-02T23:54:43;136.60;;;51.33;;
14167;SDS011;7163;50.626;12.922;2024-03-02T23:59:44;130.77;;;50.83;;
